createdAt,value
2023-12-09T00:01:58.427Z,52.83
2023-12-09T00:04:28.256Z,53.10
2023-12-09T00:06:56.861Z,51.07
2023-12-09T00:09:25.425Z,56.83
2023-12-09T00:11:54.181Z,55.33
2023-12-09T00:14:22.975Z,55.10
2023-12-09T00:16:51.668Z,53.83
2023-12-09T00:19:20.273Z,56.17
2023-12-09T00:21:50.146Z,53.27
2023-12-09T00:24:18.676Z,55.53
2023-12-09T00:26:47.131Z,53.37
2023-12-09T00:29:15.567Z,54.57
2023-12-09T00:31:44.054Z,56.30
2023-12-09T00:34:12.599Z,56.43
2023-12-09T00:36:41.169Z,54.53
2023-12-09T00:39:11.073Z,52.60
2023-12-09T00:41:39.499Z,52.37
2023-12-09T00:44:07.961Z,51.23
2023-12-09T00:46:36.432Z,55.30
2023-12-09T00:49:04.998Z,53.27
2023-12-09T00:51:33.683Z,51.63
2023-12-09T00:54:02.233Z,54.97
2023-12-09T00:56:34.773Z,54.37
2023-12-09T00:59:04.306Z,52.03
2023-12-09T01:01:34.837Z,55.30
2023-12-09T01:04:04.508Z,54.10
2023-12-09T01:06:33.369Z,54.73
2023-12-09T01:09:02.011Z,56.27
2023-12-09T01:11:31.925Z,54.93
2023-12-09T01:14:00.401Z,56.90
2023-12-09T01:16:29.090Z,52.03
2023-12-09T01:18:57.600Z,56.03
2023-12-09T01:21:26.160Z,55.80
2023-12-09T01:23:54.727Z,55.93
2023-12-09T01:26:23.208Z,56.93
2023-12-09T01:28:53.111Z,55.93
2023-12-09T01:31:21.578Z,62.07
2023-12-09T01:33:50.105Z,60.60
2023-12-09T01:36:18.669Z,58.17
2023-12-09T01:38:47.202Z,59.53
2023-12-09T01:41:15.669Z,59.53
2023-12-09T01:43:44.399Z,57.23
2023-12-09T01:46:14.293Z,58.73
2023-12-09T01:48:43.366Z,55.30
2023-12-09T01:51:12.010Z,59.37
2023-12-09T01:53:40.589Z,56.10
2023-12-09T01:56:12.170Z,57.73
2023-12-09T01:58:40.899Z,54.70
2023-12-09T02:01:09.585Z,58.70
2023-12-09T02:03:39.706Z,56.63
2023-12-09T02:06:08.319Z,58.70
2023-12-09T02:08:37.193Z,62.80
2023-12-09T02:11:09.492Z,63.33
2023-12-09T02:13:43.008Z,58.37
2023-12-09T02:16:14.145Z,59.07
2023-12-09T02:18:44.408Z,57.77
2023-12-09T02:21:13.061Z,59.63
2023-12-09T02:23:42.981Z,59.43
2023-12-09T02:26:15.752Z,61.73
2023-12-09T02:28:48.631Z,56.67
2023-12-09T02:31:18.271Z,59.13
2023-12-09T02:33:46.855Z,59.33
2023-12-09T02:36:19.074Z,57.33
2023-12-09T02:38:50.118Z,60.70
2023-12-09T02:41:18.688Z,59.43
2023-12-09T02:43:47.385Z,58.63
2023-12-09T02:46:15.945Z,59.60
2023-12-09T02:48:44.520Z,59.27
2023-12-09T02:51:13.134Z,57.37
2023-12-09T02:53:41.643Z,58.37
2023-12-09T02:56:12.259Z,60.30
2023-12-09T02:58:40.766Z,60.17
2023-12-09T03:01:09.279Z,56.60
2023-12-09T03:03:37.808Z,60.60
2023-12-09T03:06:06.634Z,60.57
2023-12-09T03:08:35.170Z,62.20
2023-12-09T03:11:03.601Z,60.33
2023-12-09T03:13:33.492Z,60.03
2023-12-09T03:16:02.117Z,57.93
2023-12-09T03:18:30.866Z,59.90
2023-12-09T03:20:59.474Z,60.97
2023-12-09T03:23:27.958Z,60.67
2023-12-09T03:25:56.402Z,59.80
2023-12-09T03:28:24.914Z,56.67
2023-12-09T03:30:54.685Z,57.47
2023-12-09T03:33:23.246Z,56.80
2023-12-09T03:35:51.855Z,57.13
2023-12-09T03:38:20.310Z,61.53
2023-12-09T03:40:48.762Z,60.43
2023-12-09T03:43:17.245Z,58.50
2023-12-09T03:45:45.673Z,60.50
2023-12-09T03:48:15.809Z,62.07
2023-12-09T03:50:44.414Z,63.73
2023-12-09T03:53:12.898Z,57.40
2023-12-09T03:55:41.354Z,60.00
2023-12-09T03:58:09.943Z,58.43
2023-12-09T04:00:39.199Z,60.00
2023-12-09T04:03:08.021Z,60.57
2023-12-09T04:05:37.924Z,59.37
2023-12-09T04:08:06.633Z,61.23
2023-12-09T04:10:35.125Z,58.93
2023-12-09T04:13:04.229Z,61.27
2023-12-09T04:15:32.800Z,57.67
2023-12-09T04:18:01.470Z,58.57
2023-12-09T04:20:30.058Z,60.30
2023-12-09T04:23:00.120Z,57.17
2023-12-09T04:25:28.561Z,66.77
2023-12-09T04:27:57.048Z,58.57
2023-12-09T04:30:25.532Z,62.70
2023-12-09T04:32:54.085Z,59.13
2023-12-09T04:35:22.708Z,60.83
2023-12-09T04:37:51.133Z,61.00
2023-12-09T04:40:21.013Z,62.33
2023-12-09T04:42:49.480Z,62.63
2023-12-09T04:45:17.990Z,58.93
2023-12-09T04:47:46.530Z,58.07
2023-12-09T04:50:15.048Z,61.93
2023-12-09T04:52:44.129Z,60.63
2023-12-09T04:55:12.572Z,58.80
2023-12-09T04:57:42.425Z,61.20
2023-12-09T05:00:12.196Z,63.30
2023-12-09T05:02:40.886Z,61.77
2023-12-09T05:05:09.710Z,61.43
2023-12-09T05:07:38.504Z,59.53
2023-12-09T05:10:07.324Z,60.27
2023-12-09T05:12:35.817Z,60.73
2023-12-09T05:15:07.119Z,58.37
2023-12-09T05:17:35.792Z,58.57
2023-12-09T05:20:05.436Z,58.80
2023-12-09T05:22:33.913Z,63.07
2023-12-09T05:25:02.471Z,57.27
2023-12-09T05:27:31.040Z,57.57
2023-12-09T05:29:59.584Z,62.33
2023-12-09T05:32:29.658Z,56.13
2023-12-09T05:34:58.235Z,58.80
2023-12-09T05:37:26.719Z,54.27
2023-12-09T05:39:55.323Z,55.97
2023-12-09T05:42:23.891Z,55.70
2023-12-09T05:44:55.355Z,55.87
2023-12-09T05:47:24.152Z,52.80
2023-12-09T05:49:54.046Z,53.73
2023-12-09T05:52:23.047Z,50.13
2023-12-09T05:54:52.191Z,50.87
2023-12-09T05:57:20.677Z,48.37
2023-12-09T05:59:49.166Z,46.60
2023-12-09T06:02:17.836Z,45.87
2023-12-09T06:04:46.411Z,42.13
2023-12-09T06:07:16.370Z,44.03
2023-12-09T06:09:44.896Z,45.50
2023-12-09T06:12:13.403Z,42.27
2023-12-09T06:14:42.360Z,44.70
2023-12-09T06:17:10.864Z,44.83
2023-12-09T06:19:39.358Z,42.40
2023-12-09T06:22:08.987Z,42.70
2023-12-09T06:24:38.906Z,42.53
2023-12-09T06:27:07.473Z,40.60
2023-12-09T06:29:36.435Z,43.00
2023-12-09T06:32:05.136Z,43.20
2023-12-09T06:34:33.735Z,39.63
2023-12-09T06:37:02.269Z,40.90
2023-12-09T06:39:30.876Z,44.13
2023-12-09T06:42:01.201Z,43.63
2023-12-09T06:44:29.862Z,45.87
2023-12-09T06:46:58.392Z,43.73
2023-12-09T06:49:26.934Z,41.47
2023-12-09T06:51:55.540Z,41.87
2023-12-09T06:54:24.129Z,41.33
2023-12-09T06:56:53.963Z,41.97
2023-12-09T06:59:23.773Z,40.33
2023-12-09T07:01:52.251Z,39.33
2023-12-09T07:04:20.772Z,40.10
2023-12-09T07:06:49.249Z,40.77
2023-12-09T07:09:17.811Z,38.63
2023-12-09T07:11:46.239Z,39.10
2023-12-09T07:14:16.562Z,39.23
2023-12-09T07:16:46.541Z,38.57
2023-12-09T07:19:15.205Z,38.23
2023-12-09T07:21:43.753Z,38.33
2023-12-09T07:24:12.261Z,37.73
2023-12-09T07:26:40.691Z,38.03
2023-12-09T07:29:09.716Z,41.10
2023-12-09T07:31:38.184Z,43.73
2023-12-09T07:34:08.139Z,42.87
2023-12-09T07:36:36.860Z,43.90
2023-12-09T07:39:06.187Z,43.20
2023-12-09T07:41:35.710Z,43.90
2023-12-09T07:44:04.978Z,41.93
2023-12-09T07:46:33.760Z,41.63
2023-12-09T07:49:02.371Z,40.00
2023-12-09T07:51:32.459Z,40.87
2023-12-09T07:54:01.083Z,38.53
2023-12-09T07:56:29.700Z,38.47
2023-12-09T07:58:58.148Z,39.03
2023-12-09T08:01:26.619Z,32.70
2023-12-09T08:03:55.176Z,27.20
2023-12-09T08:06:23.692Z,33.37
2023-12-09T08:08:53.624Z,32.57
2023-12-09T08:11:22.052Z,31.73
2023-12-09T08:13:50.667Z,33.50
2023-12-09T08:16:19.161Z,35.33
2023-12-09T08:18:47.923Z,31.00
2023-12-09T08:21:16.476Z,30.90
2023-12-09T08:23:44.972Z,32.17
2023-12-09T08:26:19.941Z,33.40
2023-12-09T08:28:48.651Z,32.63
2023-12-09T08:31:17.104Z,30.23
2023-12-09T08:33:45.858Z,28.00
2023-12-09T08:36:14.447Z,31.23
2023-12-09T08:38:42.906Z,31.10
2023-12-09T08:41:11.349Z,29.77
2023-12-09T08:43:41.261Z,27.83
2023-12-09T08:46:09.719Z,28.87
2023-12-09T08:48:38.415Z,30.67
2023-12-09T08:51:07.189Z,30.77
2023-12-09T08:53:35.639Z,30.23
2023-12-09T08:56:04.120Z,26.60
2023-12-09T08:58:32.722Z,24.53
2023-12-09T09:01:02.660Z,26.63
2023-12-09T09:03:31.787Z,26.50
2023-12-09T09:06:00.415Z,23.73
2023-12-09T09:08:28.908Z,23.67
2023-12-09T09:10:57.849Z,21.67
2023-12-09T09:13:26.764Z,23.43
2023-12-09T09:15:55.458Z,22.63
2023-12-09T09:18:25.487Z,21.70
2023-12-09T09:20:54.957Z,19.43
2023-12-09T09:23:23.418Z,21.00
2023-12-09T09:25:52.589Z,20.63
2023-12-09T09:28:21.030Z,20.03
2023-12-09T09:30:49.487Z,17.67
2023-12-09T09:33:19.428Z,18.87
2023-12-09T09:35:52.402Z,19.87
2023-12-09T09:38:20.854Z,17.53
2023-12-09T09:40:49.336Z,17.47
2023-12-09T09:43:22.157Z,18.10
2023-12-09T09:45:51.066Z,17.93
2023-12-09T09:48:20.135Z,18.50
2023-12-09T09:50:53.134Z,15.63
2023-12-09T09:53:23.415Z,16.73
2023-12-09T09:55:52.374Z,15.07
2023-12-09T09:58:21.790Z,16.50
2023-12-09T10:00:51.802Z,16.53
2023-12-09T10:03:20.369Z,13.83
2023-12-09T10:05:50.507Z,12.43
2023-12-09T10:08:18.967Z,14.20
2023-12-09T10:10:47.486Z,15.57
2023-12-09T10:13:15.967Z,13.23
2023-12-09T10:15:44.566Z,13.97
2023-12-09T10:18:15.925Z,13.77
2023-12-09T10:20:46.885Z,15.70
2023-12-09T10:23:17.940Z,11.67
2023-12-09T10:25:50.112Z,13.30
2023-12-09T10:28:18.567Z,16.60
2023-12-09T10:30:48.128Z,21.27
2023-12-09T10:33:17.398Z,33.87
2023-12-09T10:35:46.506Z,23.50
2023-12-09T10:38:17.982Z,19.53
2023-12-09T10:40:47.802Z,22.77
2023-12-09T10:43:16.599Z,18.03
2023-12-09T10:45:45.403Z,18.17
2023-12-09T10:48:13.964Z,17.43
2023-12-09T10:50:42.475Z,15.13
2023-12-09T10:53:10.931Z,12.87
2023-12-09T10:55:40.667Z,16.00
2023-12-09T10:58:10.608Z,16.23
2023-12-09T11:00:39.190Z,13.57
2023-12-09T11:03:08.703Z,15.83
2023-12-09T11:05:42.539Z,15.00
2023-12-09T11:08:12.404Z,14.73
2023-12-09T11:10:41.270Z,13.33
2023-12-09T11:13:11.202Z,14.83
2023-12-09T11:15:39.789Z,15.70
2023-12-09T11:18:10.238Z,13.67
2023-12-09T11:20:41.086Z,14.20
2023-12-09T11:23:11.223Z,13.67
2023-12-09T11:25:41.576Z,15.10
2023-12-09T11:28:12.554Z,16.80
2023-12-09T11:30:42.455Z,13.87
2023-12-09T11:33:11.523Z,14.13
2023-12-09T11:35:40.376Z,16.40
2023-12-09T11:38:10.816Z,13.33
2023-12-09T11:40:39.268Z,14.13
2023-12-09T11:43:09.586Z,13.63
2023-12-09T11:45:39.743Z,14.97
2023-12-09T11:48:08.411Z,12.20
2023-12-09T11:50:36.967Z,14.40
2023-12-09T11:53:05.640Z,12.07
2023-12-09T11:55:34.107Z,12.30
2023-12-09T11:58:04.587Z,11.97
2023-12-09T12:00:33.157Z,12.20
2023-12-09T12:03:04.270Z,13.93
2023-12-09T12:05:33.495Z,12.13
2023-12-09T12:08:02.020Z,12.03
2023-12-09T12:10:30.492Z,11.73
2023-12-09T12:12:59.021Z,11.87
2023-12-09T12:15:27.662Z,10.50
2023-12-09T12:17:56.347Z,11.43
2023-12-09T12:20:26.344Z,10.80
2023-12-09T12:22:54.900Z,10.37
2023-12-09T12:25:27.305Z,10.93
2023-12-09T12:28:00.052Z,12.90
2023-12-09T12:30:28.667Z,10.67
2023-12-09T12:32:57.619Z,10.87
2023-12-09T12:35:27.996Z,11.30
2023-12-09T12:37:58.967Z,11.00
2023-12-09T12:40:27.931Z,11.23
2023-12-09T12:42:56.626Z,12.47
2023-12-09T12:45:28.728Z,11.13
2023-12-09T12:47:57.818Z,11.40
2023-12-09T12:50:27.947Z,11.03
2023-12-09T12:52:56.466Z,13.07
2023-12-09T12:55:25.125Z,12.90
2023-12-09T12:57:56.147Z,11.87
2023-12-09T13:00:25.350Z,12.50
2023-12-09T13:02:53.879Z,11.23
2023-12-09T13:05:22.481Z,13.77
2023-12-09T13:07:52.953Z,13.30
2023-12-09T13:10:21.747Z,12.27
2023-12-09T13:12:50.453Z,12.17
2023-12-09T13:15:19.277Z,12.23
2023-12-09T13:17:48.005Z,12.60
2023-12-09T13:20:16.580Z,11.67
2023-12-09T13:22:47.027Z,14.80
2023-12-09T13:25:18.668Z,12.43
2023-12-09T13:27:47.371Z,11.80
2023-12-09T13:30:16.192Z,12.50
2023-12-09T13:32:46.500Z,11.63
2023-12-09T13:35:16.254Z,12.17
2023-12-09T13:37:45.108Z,11.33
2023-12-09T13:40:14.012Z,11.77
2023-12-09T13:42:44.063Z,12.43
2023-12-09T13:45:14.702Z,11.47
2023-12-09T13:47:43.373Z,11.70
2023-12-09T13:50:12.530Z,12.20
2023-12-09T13:52:41.228Z,12.50
2023-12-09T13:55:10.352Z,12.07
2023-12-09T13:57:38.890Z,11.63
2023-12-09T14:00:09.869Z,13.80
2023-12-09T14:02:41.175Z,14.33
2023-12-09T14:05:11.479Z,14.53
2023-12-09T14:07:41.624Z,15.70
2023-12-09T14:10:11.048Z,15.27
2023-12-09T14:12:40.718Z,14.53
2023-12-09T14:15:11.292Z,15.67
2023-12-09T14:17:43.050Z,19.47
2023-12-09T14:20:13.028Z,18.43
2023-12-09T14:22:41.714Z,31.03
2023-12-09T14:25:10.888Z,44.10
2023-12-09T14:27:39.632Z,42.97
2023-12-09T14:30:12.415Z,36.03
2023-12-09T14:32:45.728Z,28.53
2023-12-09T14:35:15.493Z,28.40
2023-12-09T14:37:44.502Z,24.33
2023-12-09T14:40:13.174Z,21.93
2023-12-09T14:42:41.844Z,17.17
2023-12-09T14:45:11.643Z,16.80
2023-12-09T14:47:50.597Z,17.70
2023-12-09T14:50:28.131Z,17.23
2023-12-09T14:52:56.772Z,17.50
2023-12-09T14:55:25.518Z,17.53
2023-12-09T14:57:54.107Z,17.47
2023-12-09T15:00:23.456Z,16.43
2023-12-09T15:02:52.127Z,14.50
2023-12-09T15:05:20.752Z,17.13
2023-12-09T15:07:50.733Z,18.73
2023-12-09T15:10:19.292Z,15.27
2023-12-09T15:12:49.087Z,14.03
2023-12-09T15:15:18.406Z,14.77
2023-12-09T15:17:47.231Z,13.83
2023-12-09T15:20:15.922Z,14.40
2023-12-09T15:22:45.889Z,14.10
2023-12-09T15:25:18.272Z,14.47
2023-12-09T15:27:46.910Z,12.97
2023-12-09T15:30:16.005Z,13.03
2023-12-09T15:32:45.630Z,12.20
2023-12-09T15:35:14.460Z,12.17
2023-12-09T15:37:42.950Z,12.10
2023-12-09T15:40:12.430Z,13.27
2023-12-09T15:42:42.449Z,13.50
2023-12-09T15:45:11.679Z,11.03
2023-12-09T15:47:40.316Z,13.40
2023-12-09T15:50:09.381Z,12.77
2023-12-09T15:52:37.973Z,14.57
2023-12-09T15:55:07.062Z,13.13
2023-12-09T15:57:35.712Z,15.17
2023-12-09T16:00:06.902Z,19.07
2023-12-09T16:02:35.753Z,22.57
2023-12-09T16:05:05.425Z,22.57
2023-12-09T16:07:34.175Z,23.40
2023-12-09T16:10:02.804Z,27.77
2023-12-09T16:12:31.611Z,30.33
2023-12-09T16:15:04.284Z,27.73
2023-12-09T16:17:36.407Z,26.93
2023-12-09T16:20:05.019Z,31.83
2023-12-09T16:22:33.566Z,32.97
2023-12-09T16:25:02.100Z,36.43
2023-12-09T16:27:32.607Z,31.07
2023-12-09T16:30:01.164Z,34.70
2023-12-09T16:32:29.954Z,38.57
2023-12-09T16:35:00.120Z,40.67
2023-12-09T16:37:29.164Z,37.00
2023-12-09T16:39:57.779Z,39.33
2023-12-09T16:42:26.589Z,45.60
2023-12-09T16:44:55.255Z,49.43
2023-12-09T16:47:23.823Z,39.27
2023-12-09T16:49:52.358Z,47.03
2023-12-09T16:52:22.315Z,55.57
2023-12-09T16:54:50.816Z,54.83
2023-12-09T16:57:19.545Z,47.03
2023-12-09T16:59:48.072Z,50.30
2023-12-09T17:02:16.613Z,54.80
2023-12-09T17:04:46.052Z,61.43
2023-12-09T17:07:14.633Z,53.77
2023-12-09T17:09:45.985Z,49.13
2023-12-09T17:12:15.541Z,57.93
2023-12-09T17:14:44.194Z,61.83
2023-12-09T17:17:13.103Z,66.63
2023-12-09T17:19:41.647Z,73.93
2023-12-09T17:22:10.167Z,71.80
2023-12-09T17:24:39.408Z,71.97
2023-12-09T17:27:09.464Z,70.10
2023-12-09T17:29:38.018Z,72.60
2023-12-09T17:32:06.988Z,71.77
2023-12-09T17:34:36.012Z,72.93
2023-12-09T17:37:04.776Z,75.03
2023-12-09T17:39:33.326Z,72.97
2023-12-09T17:42:01.864Z,71.33
2023-12-09T17:44:34.674Z,67.47
2023-12-09T17:47:03.192Z,68.70
2023-12-09T17:49:31.841Z,65.10
2023-12-09T17:52:01.513Z,63.90
2023-12-09T17:54:30.078Z,70.47
2023-12-09T17:56:58.671Z,69.20
2023-12-09T17:59:28.365Z,66.97
2023-12-09T18:02:00.072Z,71.10
2023-12-09T18:04:28.601Z,62.60
2023-12-09T18:06:57.152Z,66.53
2023-12-09T18:09:26.470Z,64.77
2023-12-09T18:11:56.792Z,65.37
2023-12-09T18:14:25.295Z,65.13
2023-12-09T18:16:53.883Z,62.90
2023-12-09T18:19:23.901Z,63.43
2023-12-09T18:21:52.559Z,61.17
2023-12-09T18:24:21.221Z,62.03
2023-12-09T18:26:49.974Z,61.13
2023-12-09T18:29:18.520Z,61.77
2023-12-09T18:31:47.116Z,60.03
2023-12-09T18:34:15.743Z,63.27
2023-12-09T18:36:45.759Z,60.83
2023-12-09T18:39:14.290Z,62.30
2023-12-09T18:41:42.766Z,58.80
2023-12-09T18:44:11.309Z,62.10
2023-12-09T18:46:39.869Z,61.13
2023-12-09T18:49:09.821Z,59.03
2023-12-09T18:51:38.477Z,57.20
2023-12-09T18:54:08.797Z,61.93
2023-12-09T18:56:37.509Z,58.93
2023-12-09T18:59:06.583Z,61.50
2023-12-09T19:01:35.342Z,60.97
2023-12-09T19:04:04.090Z,60.60
2023-12-09T19:06:38.974Z,62.47
2023-12-09T19:09:15.227Z,60.13
2023-12-09T19:11:43.770Z,62.57
2023-12-09T19:14:12.476Z,61.13
2023-12-09T19:16:41.447Z,61.70
2023-12-09T19:19:10.196Z,63.93
2023-12-09T19:21:40.981Z,60.60
2023-12-09T19:24:10.430Z,66.27
2023-12-09T19:26:40.387Z,64.47
2023-12-09T19:29:08.917Z,65.50
2023-12-09T19:31:37.423Z,62.33
2023-12-09T19:34:06.047Z,65.53
2023-12-09T19:36:34.745Z,66.03
2023-12-09T19:39:03.485Z,65.97
2023-12-09T19:41:32.605Z,63.00
2023-12-09T19:44:02.485Z,65.83
2023-12-09T19:46:31.129Z,64.17
2023-12-09T19:48:59.735Z,63.57
2023-12-09T19:51:28.418Z,63.73
2023-12-09T19:53:56.964Z,62.77
2023-12-09T19:56:25.517Z,63.47
2023-12-09T19:58:54.673Z,64.37
2023-12-09T20:01:24.674Z,66.67
2023-12-09T20:03:53.320Z,62.40
2023-12-09T20:06:22.004Z,61.10
2023-12-09T20:08:50.554Z,62.13
2023-12-09T20:11:19.185Z,63.43
2023-12-09T20:13:47.911Z,64.17
2023-12-09T20:16:16.427Z,62.67
2023-12-09T20:18:46.396Z,63.70
2023-12-09T20:21:14.984Z,66.90
2023-12-09T20:23:43.488Z,65.40
2023-12-09T20:26:12.077Z,63.10
2023-12-09T20:28:40.564Z,66.10
2023-12-09T20:31:12.477Z,66.40
2023-12-09T20:33:42.667Z,68.37
2023-12-09T20:36:12.931Z,67.80
2023-12-09T20:38:41.467Z,70.47
2023-12-09T20:41:09.963Z,69.47
2023-12-09T20:43:38.731Z,64.63
2023-12-09T20:46:07.576Z,67.43
2023-12-09T20:48:36.138Z,70.20
2023-12-09T20:51:04.622Z,70.13
2023-12-09T20:53:34.547Z,74.97
2023-12-09T20:56:04.522Z,68.70
2023-12-09T20:58:33.008Z,73.70
2023-12-09T21:01:02.643Z,70.20
2023-12-09T21:03:31.463Z,72.37
2023-12-09T21:05:59.985Z,74.23
2023-12-09T21:08:28.471Z,73.33
2023-12-09T21:10:59.936Z,75.03
2023-12-09T21:13:28.622Z,73.37
2023-12-09T21:15:57.231Z,76.03
2023-12-09T21:18:25.888Z,69.67
2023-12-09T21:20:54.454Z,75.20
2023-12-09T21:23:23.093Z,78.00
2023-12-09T21:25:51.695Z,73.33
2023-12-09T21:28:21.754Z,74.00
2023-12-09T21:30:50.327Z,74.57
2023-12-09T21:33:19.756Z,74.53
2023-12-09T21:35:49.198Z,75.80
2023-12-09T21:38:17.687Z,80.27
2023-12-09T21:40:46.302Z,82.93
2023-12-09T21:43:14.768Z,76.80
2023-12-09T21:45:44.722Z,78.90
2023-12-09T21:48:15.158Z,75.80
2023-12-09T21:50:43.806Z,84.40
2023-12-09T21:53:13.042Z,78.87
2023-12-09T21:55:42.213Z,78.80
2023-12-09T21:58:11.433Z,84.47
2023-12-09T22:00:40.094Z,77.10
2023-12-09T22:03:10.301Z,83.03
2023-12-09T22:05:38.936Z,80.53
2023-12-09T22:08:07.463Z,86.30
2023-12-09T22:10:37.996Z,85.90
2023-12-09T22:13:07.182Z,81.43
2023-12-09T22:15:37.520Z,78.37
2023-12-09T22:18:06.495Z,84.87
2023-12-09T22:20:36.504Z,81.73
2023-12-09T22:23:04.992Z,80.97
2023-12-09T22:25:33.507Z,84.40
2023-12-09T22:28:01.989Z,82.17
2023-12-09T22:30:30.489Z,78.63
2023-12-09T22:32:59.138Z,83.27
2023-12-09T22:35:27.664Z,78.30
2023-12-09T22:37:57.561Z,83.57
2023-12-09T22:40:26.254Z,81.90
2023-12-09T22:42:54.908Z,80.83
2023-12-09T22:45:23.442Z,80.67
2023-12-09T22:47:52.201Z,80.73
2023-12-09T22:50:20.827Z,75.80
2023-12-09T22:52:49.311Z,74.00
2023-12-09T22:55:19.200Z,82.40
2023-12-09T22:57:47.711Z,78.47
2023-12-09T23:00:28.341Z,75.03
2023-12-09T23:02:56.900Z,77.70
2023-12-09T23:05:25.388Z,79.57
2023-12-09T23:07:53.921Z,79.37
2023-12-09T23:10:23.893Z,79.13
2023-12-09T23:12:52.491Z,76.07
2023-12-09T23:15:22.306Z,76.33
2023-12-09T23:17:51.436Z,77.60
2023-12-09T23:20:20.265Z,78.00
2023-12-09T23:22:48.798Z,76.73
2023-12-09T23:25:17.349Z,79.73
2023-12-09T23:27:47.436Z,76.53
2023-12-09T23:30:16.365Z,73.83
2023-12-09T23:32:44.978Z,73.20
2023-12-09T23:35:13.484Z,75.60
2023-12-09T23:37:42.007Z,76.53
2023-12-09T23:40:10.786Z,70.70
2023-12-09T23:42:39.315Z,77.83
2023-12-09T23:45:09.809Z,77.10
2023-12-09T23:47:38.412Z,74.27
2023-12-09T23:50:07.542Z,71.70
2023-12-09T23:52:36.107Z,76.53
2023-12-09T23:55:04.645Z,70.97
2023-12-09T23:57:33.221Z,73.67
